sensor_id;sensor_type;location;lat;lon;timestamp;P1;durP1;ratioP1;P2;durP2;ratioP2
13683;SDS011;6914;53.552;9.908;2023-06-19T00:00:50;8.53;;;7.73;;
13683;SDS011;6914;53.552;9.908;2023-06-19T00:03:17;8.77;;;7.80;;
13683;SDS011;6914;53.552;9.908;2023-06-19T00:05:44;8.13;;;7.50;;
13683;SDS011;6914;53.552;9.908;2023-06-19T00:08:11;9.10;;;8.40;;
13683;SDS011;6914;53.552;9.908;2023-06-19T00:10:39;8.30;;;7.50;;
13683;SDS011;6914;53.552;9.908;2023-06-19T00:13:07;8.33;;;7.30;;
13683;SDS011;6914;53.552;9.908;2023-06-19T00:15:34;7.80;;;7.20;;
13683;SDS011;6914;53.552;9.908;2023-06-19T00:18:02;8.57;;;7.70;;
13683;SDS011;6914;53.552;9.908;2023-06-19T00:20:29;8.27;;;7.67;;
13683;SDS011;6914;53.552;9.908;2023-06-19T00:22:56;11.63;;;7.90;;
13683;SDS011;6914;53.552;9.908;2023-06-19T00:25:24;14.20;;;7.70;;
13683;SDS011;6914;53.552;9.908;2023-06-19T00:27:51;8.37;;;7.67;;
13683;SDS011;6914;53.552;9.908;2023-06-19T00:30:19;8.37;;;7.70;;
13683;SDS011;6914;53.552;9.908;2023-06-19T00:32:46;9.93;;;8.93;;
13683;SDS011;6914;53.552;9.908;2023-06-19T00:35:15;8.40;;;7.80;;
13683;SDS011;6914;53.552;9.908;2023-06-19T00:37:43;9.70;;;7.93;;
13683;SDS011;6914;53.552;9.908;2023-06-19T00:40:12;8.20;;;7.60;;
13683;SDS011;6914;53.552;9.908;2023-06-19T00:42:42;9.73;;;8.83;;
13683;SDS011;6914;53.552;9.908;2023-06-19T00:45:09;12.63;;;8.67;;
13683;SDS011;6914;53.552;9.908;2023-06-19T00:47:38;9.33;;;8.03;;
13683;SDS011;6914;53.552;9.908;2023-06-19T00:50:05;14.23;;;8.70;;
13683;SDS011;6914;53.552;9.908;2023-06-19T00:52:33;9.03;;;8.03;;
13683;SDS011;6914;53.552;9.908;2023-06-19T00:55:01;16.43;;;8.63;;
13683;SDS011;6914;53.552;9.908;2023-06-19T00:57:29;9.33;;;8.57;;
13683;SDS011;6914;53.552;9.908;2023-06-19T00:59:57;9.50;;;8.77;;
13683;SDS011;6914;53.552;9.908;2023-06-19T01:02:24;9.30;;;8.50;;
13683;SDS011;6914;53.552;9.908;2023-06-19T01:04:55;8.00;;;7.40;;
13683;SDS011;6914;53.552;9.908;2023-06-19T01:07:31;8.53;;;7.87;;
13683;SDS011;6914;53.552;9.908;2023-06-19T01:10:02;9.33;;;8.53;;
13683;SDS011;6914;53.552;9.908;2023-06-19T01:12:30;9.40;;;8.70;;
13683;SDS011;6914;53.552;9.908;2023-06-19T01:15:02;8.80;;;8.10;;
13683;SDS011;6914;53.552;9.908;2023-06-19T01:17:30;8.77;;;8.17;;
13683;SDS011;6914;53.552;9.908;2023-06-19T01:19:59;14.13;;;8.07;;
13683;SDS011;6914;53.552;9.908;2023-06-19T01:22:33;10.57;;;9.47;;
13683;SDS011;6914;53.552;9.908;2023-06-19T01:25:00;9.00;;;8.20;;
13683;SDS011;6914;53.552;9.908;2023-06-19T01:27:29;11.37;;;7.87;;
13683;SDS011;6914;53.552;9.908;2023-06-19T01:29:57;10.63;;;8.67;;
13683;SDS011;6914;53.552;9.908;2023-06-19T01:32:25;10.83;;;9.33;;
13683;SDS011;6914;53.552;9.908;2023-06-19T01:34:56;12.17;;;10.57;;
13683;SDS011;6914;53.552;9.908;2023-06-19T01:37:25;11.90;;;8.60;;
13683;SDS011;6914;53.552;9.908;2023-06-19T01:39:54;10.00;;;9.07;;
13683;SDS011;6914;53.552;9.908;2023-06-19T01:42:22;10.83;;;9.63;;
13683;SDS011;6914;53.552;9.908;2023-06-19T01:44:50;10.80;;;9.77;;
13683;SDS011;6914;53.552;9.908;2023-06-19T01:47:17;11.03;;;9.47;;
13683;SDS011;6914;53.552;9.908;2023-06-19T01:49:46;10.10;;;9.27;;
13683;SDS011;6914;53.552;9.908;2023-06-19T01:52:13;11.20;;;8.77;;
13683;SDS011;6914;53.552;9.908;2023-06-19T01:54:41;11.20;;;10.23;;
13683;SDS011;6914;53.552;9.908;2023-06-19T01:57:09;9.90;;;8.60;;
13683;SDS011;6914;53.552;9.908;2023-06-19T01:59:36;10.63;;;9.50;;
13683;SDS011;6914;53.552;9.908;2023-06-19T02:02:04;10.63;;;9.53;;
13683;SDS011;6914;53.552;9.908;2023-06-19T02:04:32;10.57;;;9.70;;
13683;SDS011;6914;53.552;9.908;2023-06-19T02:06:59;12.10;;;9.50;;
13683;SDS011;6914;53.552;9.908;2023-06-19T02:09:26;11.10;;;9.90;;
13683;SDS011;6914;53.552;9.908;2023-06-19T02:11:53;12.10;;;10.87;;
13683;SDS011;6914;53.552;9.908;2023-06-19T02:14:22;10.63;;;9.73;;
13683;SDS011;6914;53.552;9.908;2023-06-19T02:16:49;11.57;;;10.00;;
13683;SDS011;6914;53.552;9.908;2023-06-19T02:19:16;10.10;;;9.40;;
13683;SDS011;6914;53.552;9.908;2023-06-19T02:21:44;11.07;;;10.27;;
13683;SDS011;6914;53.552;9.908;2023-06-19T02:24:11;11.20;;;10.13;;
13683;SDS011;6914;53.552;9.908;2023-06-19T02:26:38;11.00;;;9.57;;
13683;SDS011;6914;53.552;9.908;2023-06-19T02:29:05;14.50;;;9.93;;
13683;SDS011;6914;53.552;9.908;2023-06-19T02:31:33;11.17;;;10.17;;
13683;SDS011;6914;53.552;9.908;2023-06-19T02:34:00;11.13;;;10.03;;
13683;SDS011;6914;53.552;9.908;2023-06-19T02:36:28;10.47;;;9.30;;
13683;SDS011;6914;53.552;9.908;2023-06-19T02:38:55;14.00;;;9.97;;
13683;SDS011;6914;53.552;9.908;2023-06-19T02:41:22;11.63;;;10.40;;
13683;SDS011;6914;53.552;9.908;2023-06-19T02:43:50;10.43;;;9.43;;
13683;SDS011;6914;53.552;9.908;2023-06-19T02:46:17;10.60;;;9.67;;
13683;SDS011;6914;53.552;9.908;2023-06-19T02:48:45;11.93;;;10.90;;
13683;SDS011;6914;53.552;9.908;2023-06-19T02:51:13;11.47;;;10.37;;
13683;SDS011;6914;53.552;9.908;2023-06-19T02:53:40;11.97;;;10.67;;
13683;SDS011;6914;53.552;9.908;2023-06-19T02:56:08;11.50;;;9.33;;
13683;SDS011;6914;53.552;9.908;2023-06-19T02:58:36;10.57;;;9.47;;
13683;SDS011;6914;53.552;9.908;2023-06-19T03:01:03;11.30;;;10.00;;
13683;SDS011;6914;53.552;9.908;2023-06-19T03:03:32;11.53;;;10.50;;
13683;SDS011;6914;53.552;9.908;2023-06-19T03:06:03;17.47;;;10.13;;
13683;SDS011;6914;53.552;9.908;2023-06-19T03:08:31;12.47;;;10.20;;
13683;SDS011;6914;53.552;9.908;2023-06-19T03:10:58;11.33;;;10.30;;
13683;SDS011;6914;53.552;9.908;2023-06-19T03:13:25;11.40;;;10.20;;
13683;SDS011;6914;53.552;9.908;2023-06-19T03:15:53;11.60;;;10.13;;
13683;SDS011;6914;53.552;9.908;2023-06-19T03:18:20;11.33;;;10.10;;
13683;SDS011;6914;53.552;9.908;2023-06-19T03:20:48;10.67;;;9.83;;
13683;SDS011;6914;53.552;9.908;2023-06-19T03:23:17;12.60;;;10.10;;
13683;SDS011;6914;53.552;9.908;2023-06-19T03:25:44;12.80;;;11.50;;
13683;SDS011;6914;53.552;9.908;2023-06-19T03:28:11;12.83;;;10.67;;
13683;SDS011;6914;53.552;9.908;2023-06-19T03:30:39;16.73;;;11.23;;
13683;SDS011;6914;53.552;9.908;2023-06-19T03:33:06;11.53;;;10.43;;
13683;SDS011;6914;53.552;9.908;2023-06-19T03:35:33;32.97;;;10.47;;
13683;SDS011;6914;53.552;9.908;2023-06-19T03:38:00;13.47;;;12.17;;
13683;SDS011;6914;53.552;9.908;2023-06-19T03:40:29;11.30;;;10.33;;
13683;SDS011;6914;53.552;9.908;2023-06-19T03:42:56;11.53;;;10.53;;
13683;SDS011;6914;53.552;9.908;2023-06-19T03:45:23;18.33;;;11.33;;
13683;SDS011;6914;53.552;9.908;2023-06-19T03:47:50;11.27;;;10.40;;
13683;SDS011;6914;53.552;9.908;2023-06-19T03:50:18;11.40;;;10.40;;
13683;SDS011;6914;53.552;9.908;2023-06-19T03:52:45;13.87;;;11.83;;
13683;SDS011;6914;53.552;9.908;2023-06-19T03:55:12;13.77;;;11.33;;
13683;SDS011;6914;53.552;9.908;2023-06-19T03:57:40;12.20;;;11.10;;
13683;SDS011;6914;53.552;9.908;2023-06-19T04:00:08;13.60;;;12.20;;
13683;SDS011;6914;53.552;9.908;2023-06-19T04:02:38;13.83;;;12.43;;
13683;SDS011;6914;53.552;9.908;2023-06-19T04:05:05;13.73;;;11.90;;
13683;SDS011;6914;53.552;9.908;2023-06-19T04:07:32;21.27;;;11.63;;
13683;SDS011;6914;53.552;9.908;2023-06-19T04:09:59;13.03;;;11.77;;
13683;SDS011;6914;53.552;9.908;2023-06-19T04:12:26;11.97;;;10.87;;
13683;SDS011;6914;53.552;9.908;2023-06-19T04:14:55;12.47;;;11.47;;
13683;SDS011;6914;53.552;9.908;2023-06-19T04:17:22;12.80;;;11.60;;
13683;SDS011;6914;53.552;9.908;2023-06-19T04:19:50;14.00;;;12.50;;
13683;SDS011;6914;53.552;9.908;2023-06-19T04:22:17;12.57;;;11.37;;
13683;SDS011;6914;53.552;9.908;2023-06-19T04:24:44;13.40;;;12.10;;
13683;SDS011;6914;53.552;9.908;2023-06-19T04:27:11;14.10;;;12.80;;
13683;SDS011;6914;53.552;9.908;2023-06-19T04:29:38;13.73;;;12.23;;
13683;SDS011;6914;53.552;9.908;2023-06-19T04:32:07;13.47;;;12.23;;
13683;SDS011;6914;53.552;9.908;2023-06-19T04:34:37;13.67;;;12.57;;
13683;SDS011;6914;53.552;9.908;2023-06-19T04:37:04;13.93;;;12.63;;
13683;SDS011;6914;53.552;9.908;2023-06-19T04:39:32;14.60;;;13.30;;
13683;SDS011;6914;53.552;9.908;2023-06-19T04:41:59;12.90;;;11.90;;
13683;SDS011;6914;53.552;9.908;2023-06-19T04:44:27;14.60;;;12.80;;
13683;SDS011;6914;53.552;9.908;2023-06-19T04:46:55;15.10;;;11.93;;
13683;SDS011;6914;53.552;9.908;2023-06-19T04:49:27;12.70;;;11.63;;
13683;SDS011;6914;53.552;9.908;2023-06-19T04:51:56;15.90;;;12.77;;
13683;SDS011;6914;53.552;9.908;2023-06-19T04:54:24;42.80;;;13.67;;
13683;SDS011;6914;53.552;9.908;2023-06-19T04:56:51;12.90;;;11.67;;
13683;SDS011;6914;53.552;9.908;2023-06-19T04:59:18;13.73;;;12.53;;
13683;SDS011;6914;53.552;9.908;2023-06-19T05:01:46;13.63;;;12.33;;
13683;SDS011;6914;53.552;9.908;2023-06-19T05:04:15;12.87;;;11.50;;
13683;SDS011;6914;53.552;9.908;2023-06-19T05:06:43;13.40;;;12.20;;
13683;SDS011;6914;53.552;9.908;2023-06-19T05:09:10;14.10;;;12.80;;
13683;SDS011;6914;53.552;9.908;2023-06-19T05:11:37;14.37;;;12.93;;
13683;SDS011;6914;53.552;9.908;2023-06-19T05:14:05;14.90;;;13.43;;
13683;SDS011;6914;53.552;9.908;2023-06-19T05:16:32;14.77;;;13.37;;
13683;SDS011;6914;53.552;9.908;2023-06-19T05:19:00;15.27;;;13.87;;
13683;SDS011;6914;53.552;9.908;2023-06-19T05:21:27;15.23;;;13.07;;
13683;SDS011;6914;53.552;9.908;2023-06-19T05:23:56;15.13;;;13.70;;
13683;SDS011;6914;53.552;9.908;2023-06-19T05:26:24;14.70;;;13.30;;
13683;SDS011;6914;53.552;9.908;2023-06-19T05:28:51;14.70;;;13.30;;
13683;SDS011;6914;53.552;9.908;2023-06-19T05:31:18;14.33;;;13.13;;
13683;SDS011;6914;53.552;9.908;2023-06-19T05:33:46;14.70;;;13.30;;
13683;SDS011;6914;53.552;9.908;2023-06-19T05:36:13;15.80;;;14.30;;
13683;SDS011;6914;53.552;9.908;2023-06-19T05:38:40;14.70;;;12.87;;
13683;SDS011;6914;53.552;9.908;2023-06-19T05:41:08;15.40;;;13.97;;
13683;SDS011;6914;53.552;9.908;2023-06-19T05:43:35;13.73;;;12.40;;
13683;SDS011;6914;53.552;9.908;2023-06-19T05:46:03;14.10;;;12.60;;
13683;SDS011;6914;53.552;9.908;2023-06-19T05:48:30;14.47;;;13.30;;
13683;SDS011;6914;53.552;9.908;2023-06-19T05:50:57;18.63;;;13.40;;
13683;SDS011;6914;53.552;9.908;2023-06-19T05:53:24;14.73;;;11.93;;
13683;SDS011;6914;53.552;9.908;2023-06-19T05:55:51;16.13;;;12.97;;
13683;SDS011;6914;53.552;9.908;2023-06-19T05:58:20;17.03;;;13.83;;
13683;SDS011;6914;53.552;9.908;2023-06-19T06:00:49;16.03;;;12.13;;
13683;SDS011;6914;53.552;9.908;2023-06-19T06:03:20;14.33;;;13.00;;
13683;SDS011;6914;53.552;9.908;2023-06-19T06:05:47;15.20;;;13.60;;
13683;SDS011;6914;53.552;9.908;2023-06-19T06:08:14;15.30;;;13.80;;
13683;SDS011;6914;53.552;9.908;2023-06-19T06:10:42;17.40;;;14.60;;
13683;SDS011;6914;53.552;9.908;2023-06-19T06:13:09;16.23;;;14.43;;
13683;SDS011;6914;53.552;9.908;2023-06-19T06:15:37;14.87;;;13.57;;
13683;SDS011;6914;53.552;9.908;2023-06-19T06:18:04;22.67;;;14.70;;
13683;SDS011;6914;53.552;9.908;2023-06-19T06:20:31;18.70;;;15.43;;
13683;SDS011;6914;53.552;9.908;2023-06-19T06:22:58;19.33;;;15.20;;
13683;SDS011;6914;53.552;9.908;2023-06-19T06:25:26;19.00;;;17.10;;
13683;SDS011;6914;53.552;9.908;2023-06-19T06:27:53;17.27;;;14.83;;
13683;SDS011;6914;53.552;9.908;2023-06-19T06:30:20;17.43;;;15.60;;
13683;SDS011;6914;53.552;9.908;2023-06-19T06:32:50;18.70;;;16.90;;
13683;SDS011;6914;53.552;9.908;2023-06-19T06:35:17;16.90;;;15.30;;
13683;SDS011;6914;53.552;9.908;2023-06-19T06:37:45;20.10;;;15.20;;
13683;SDS011;6914;53.552;9.908;2023-06-19T06:40:14;22.70;;;16.53;;
13683;SDS011;6914;53.552;9.908;2023-06-19T06:42:42;16.07;;;14.57;;
13683;SDS011;6914;53.552;9.908;2023-06-19T06:45:09;18.00;;;16.20;;
13683;SDS011;6914;53.552;9.908;2023-06-19T06:47:36;19.10;;;17.10;;
13683;SDS011;6914;53.552;9.908;2023-06-19T06:50:06;18.13;;;16.53;;
13683;SDS011;6914;53.552;9.908;2023-06-19T06:52:34;17.33;;;15.70;;
13683;SDS011;6914;53.552;9.908;2023-06-19T06:55:02;18.80;;;16.37;;
13683;SDS011;6914;53.552;9.908;2023-06-19T06:57:29;23.93;;;16.93;;
13683;SDS011;6914;53.552;9.908;2023-06-19T06:59:57;17.10;;;15.40;;
13683;SDS011;6914;53.552;9.908;2023-06-19T07:02:24;20.30;;;16.13;;
13683;SDS011;6914;53.552;9.908;2023-06-19T07:04:51;19.93;;;15.80;;
13683;SDS011;6914;53.552;9.908;2023-06-19T07:07:19;17.50;;;15.53;;
13683;SDS011;6914;53.552;9.908;2023-06-19T07:09:47;16.10;;;14.40;;
13683;SDS011;6914;53.552;9.908;2023-06-19T07:12:14;16.93;;;15.23;;
13683;SDS011;6914;53.552;9.908;2023-06-19T07:14:41;17.43;;;15.20;;
13683;SDS011;6914;53.552;9.908;2023-06-19T07:17:08;19.97;;;15.40;;
13683;SDS011;6914;53.552;9.908;2023-06-19T07:19:35;17.90;;;16.03;;
13683;SDS011;6914;53.552;9.908;2023-06-19T07:22:02;17.43;;;15.07;;
13683;SDS011;6914;53.552;9.908;2023-06-19T07:24:31;26.37;;;14.97;;
13683;SDS011;6914;53.552;9.908;2023-06-19T07:26:59;28.83;;;15.20;;
13683;SDS011;6914;53.552;9.908;2023-06-19T07:29:26;19.00;;;14.87;;
13683;SDS011;6914;53.552;9.908;2023-06-19T07:31:54;18.60;;;14.23;;
13683;SDS011;6914;53.552;9.908;2023-06-19T07:34:21;19.20;;;14.13;;
13683;SDS011;6914;53.552;9.908;2023-06-19T07:36:48;17.90;;;14.30;;
13683;SDS011;6914;53.552;9.908;2023-06-19T07:39:15;22.13;;;13.93;;
13683;SDS011;6914;53.552;9.908;2023-06-19T07:41:44;17.40;;;15.60;;
13683;SDS011;6914;53.552;9.908;2023-06-19T07:44:11;17.63;;;15.67;;
13683;SDS011;6914;53.552;9.908;2023-06-19T07:46:38;19.37;;;14.23;;
13683;SDS011;6914;53.552;9.908;2023-06-19T07:49:06;15.97;;;14.43;;
13683;SDS011;6914;53.552;9.908;2023-06-19T07:51:33;17.73;;;15.07;;
13683;SDS011;6914;53.552;9.908;2023-06-19T07:54:00;16.80;;;15.30;;
13683;SDS011;6914;53.552;9.908;2023-06-19T07:56:28;15.77;;;14.30;;
13683;SDS011;6914;53.552;9.908;2023-06-19T07:58:56;18.13;;;16.33;;
13683;SDS011;6914;53.552;9.908;2023-06-19T08:01:23;17.47;;;13.80;;
13683;SDS011;6914;53.552;9.908;2023-06-19T08:03:51;14.87;;;13.37;;
13683;SDS011;6914;53.552;9.908;2023-06-19T08:06:18;16.83;;;14.43;;
13683;SDS011;6914;53.552;9.908;2023-06-19T08:08:45;16.07;;;14.43;;
13683;SDS011;6914;53.552;9.908;2023-06-19T08:11:12;17.20;;;15.57;;
13683;SDS011;6914;53.552;9.908;2023-06-19T08:13:40;15.40;;;14.00;;
13683;SDS011;6914;53.552;9.908;2023-06-19T08:16:08;15.60;;;13.87;;
13683;SDS011;6914;53.552;9.908;2023-06-19T08:18:35;15.90;;;14.60;;
13683;SDS011;6914;53.552;9.908;2023-06-19T08:21:03;17.43;;;15.67;;
13683;SDS011;6914;53.552;9.908;2023-06-19T08:23:30;15.57;;;14.27;;
13683;SDS011;6914;53.552;9.908;2023-06-19T08:25:57;20.40;;;14.40;;
13683;SDS011;6914;53.552;9.908;2023-06-19T08:28:24;17.60;;;13.83;;
13683;SDS011;6914;53.552;9.908;2023-06-19T08:30:51;17.10;;;15.37;;
13683;SDS011;6914;53.552;9.908;2023-06-19T08:33:20;15.53;;;14.13;;
13683;SDS011;6914;53.552;9.908;2023-06-19T08:35:47;15.73;;;14.03;;
13683;SDS011;6914;53.552;9.908;2023-06-19T08:38:17;15.67;;;14.00;;
13683;SDS011;6914;53.552;9.908;2023-06-19T08:40:44;16.40;;;14.90;;
13683;SDS011;6914;53.552;9.908;2023-06-19T08:43:11;17.70;;;15.03;;
13683;SDS011;6914;53.552;9.908;2023-06-19T08:45:41;19.40;;;15.00;;
13683;SDS011;6914;53.552;9.908;2023-06-19T08:48:12;15.40;;;14.00;;
13683;SDS011;6914;53.552;9.908;2023-06-19T08:50:41;15.27;;;13.77;;
13683;SDS011;6914;53.552;9.908;2023-06-19T08:53:08;15.13;;;13.93;;
13683;SDS011;6914;53.552;9.908;2023-06-19T08:55:36;16.40;;;14.70;;
13683;SDS011;6914;53.552;9.908;2023-06-19T08:58:03;17.93;;;14.07;;
13683;SDS011;6914;53.552;9.908;2023-06-19T09:00:30;15.43;;;13.87;;
13683;SDS011;6914;53.552;9.908;2023-06-19T09:03:00;17.17;;;15.37;;
13683;SDS011;6914;53.552;9.908;2023-06-19T09:05:27;16.00;;;14.60;;
13683;SDS011;6914;53.552;9.908;2023-06-19T09:07:57;16.03;;;14.47;;
13683;SDS011;6914;53.552;9.908;2023-06-19T09:10:25;15.60;;;13.50;;
13683;SDS011;6914;53.552;9.908;2023-06-19T09:12:57;15.83;;;13.53;;
13683;SDS011;6914;53.552;9.908;2023-06-19T09:15:26;24.43;;;14.37;;
13683;SDS011;6914;53.552;9.908;2023-06-19T09:17:59;14.17;;;12.17;;
13683;SDS011;6914;53.552;9.908;2023-06-19T09:20:27;13.80;;;11.97;;
13683;SDS011;6914;53.552;9.908;2023-06-19T09:22:54;14.90;;;13.50;;
13683;SDS011;6914;53.552;9.908;2023-06-19T09:25:23;16.03;;;13.00;;
13683;SDS011;6914;53.552;9.908;2023-06-19T09:27:51;25.80;;;13.40;;
13683;SDS011;6914;53.552;9.908;2023-06-19T09:30:19;14.67;;;13.27;;
13683;SDS011;6914;53.552;9.908;2023-06-19T09:32:46;14.33;;;12.97;;
13683;SDS011;6914;53.552;9.908;2023-06-19T09:35:13;14.20;;;12.10;;
13683;SDS011;6914;53.552;9.908;2023-06-19T09:37:41;14.97;;;13.57;;
13683;SDS011;6914;53.552;9.908;2023-06-19T09:40:08;21.80;;;13.40;;
13683;SDS011;6914;53.552;9.908;2023-06-19T09:42:38;13.80;;;12.70;;
13683;SDS011;6914;53.552;9.908;2023-06-19T09:45:06;16.93;;;13.77;;
13683;SDS011;6914;53.552;9.908;2023-06-19T09:47:35;15.07;;;13.67;;
13683;SDS011;6914;53.552;9.908;2023-06-19T09:50:03;15.73;;;13.90;;
13683;SDS011;6914;53.552;9.908;2023-06-19T09:52:31;20.60;;;14.70;;
13683;SDS011;6914;53.552;9.908;2023-06-19T09:54:59;15.93;;;13.93;;
13683;SDS011;6914;53.552;9.908;2023-06-19T09:57:28;16.50;;;13.70;;
13683;SDS011;6914;53.552;9.908;2023-06-19T09:59:57;13.90;;;13.00;;
13683;SDS011;6914;53.552;9.908;2023-06-19T10:02:30;15.70;;;14.20;;
13683;SDS011;6914;53.552;9.908;2023-06-19T10:04:58;15.40;;;13.87;;
13683;SDS011;6914;53.552;9.908;2023-06-19T10:07:26;12.90;;;11.90;;
13683;SDS011;6914;53.552;9.908;2023-06-19T10:09:57;14.33;;;13.17;;
13683;SDS011;6914;53.552;9.908;2023-06-19T10:12:33;13.53;;;12.37;;
13683;SDS011;6914;53.552;9.908;2023-06-19T10:15:09;13.77;;;12.37;;
13683;SDS011;6914;53.552;9.908;2023-06-19T10:17:36;13.57;;;12.23;;
13683;SDS011;6914;53.552;9.908;2023-06-19T10:20:04;19.60;;;12.10;;
13683;SDS011;6914;53.552;9.908;2023-06-19T10:22:38;13.60;;;12.40;;
13683;SDS011;6914;53.552;9.908;2023-06-19T10:25:06;13.47;;;12.30;;
13683;SDS011;6914;53.552;9.908;2023-06-19T10:27:34;13.27;;;12.27;;
13683;SDS011;6914;53.552;9.908;2023-06-19T10:30:04;20.23;;;12.57;;
13683;SDS011;6914;53.552;9.908;2023-06-19T10:32:33;17.73;;;13.10;;
13683;SDS011;6914;53.552;9.908;2023-06-19T10:35:10;13.17;;;12.17;;
13683;SDS011;6914;53.552;9.908;2023-06-19T10:37:37;11.83;;;10.80;;
13683;SDS011;6914;53.552;9.908;2023-06-19T10:40:05;13.00;;;11.67;;
13683;SDS011;6914;53.552;9.908;2023-06-19T10:42:35;15.00;;;10.90;;
13683;SDS011;6914;53.552;9.908;2023-06-19T10:45:03;11.90;;;10.80;;
13683;SDS011;6914;53.552;9.908;2023-06-19T10:47:32;15.43;;;10.90;;
13683;SDS011;6914;53.552;9.908;2023-06-19T10:50:01;10.60;;;9.60;;
13683;SDS011;6914;53.552;9.908;2023-06-19T10:52:28;10.87;;;9.50;;
13683;SDS011;6914;53.552;9.908;2023-06-19T10:54:56;14.20;;;8.83;;
13683;SDS011;6914;53.552;9.908;2023-06-19T10:57:26;10.03;;;8.73;;
13683;SDS011;6914;53.552;9.908;2023-06-19T10:59:53;8.77;;;8.27;;
13683;SDS011;6914;53.552;9.908;2023-06-19T11:02:21;9.60;;;8.77;;
13683;SDS011;6914;53.552;9.908;2023-06-19T11:04:48;9.80;;;7.20;;
13683;SDS011;6914;53.552;9.908;2023-06-19T11:07:17;8.10;;;7.50;;
13683;SDS011;6914;53.552;9.908;2023-06-19T11:09:44;7.87;;;7.20;;
13683;SDS011;6914;53.552;9.908;2023-06-19T11:12:11;7.13;;;6.60;;
13683;SDS011;6914;53.552;9.908;2023-06-19T11:14:39;6.97;;;6.53;;
13683;SDS011;6914;53.552;9.908;2023-06-19T11:17:07;6.57;;;6.00;;
13683;SDS011;6914;53.552;9.908;2023-06-19T11:19:34;7.53;;;6.80;;
13683;SDS011;6914;53.552;9.908;2023-06-19T11:22:03;7.13;;;6.63;;
13683;SDS011;6914;53.552;9.908;2023-06-19T11:24:33;8.63;;;7.47;;
13683;SDS011;6914;53.552;9.908;2023-06-19T11:27:01;7.67;;;7.00;;
13683;SDS011;6914;53.552;9.908;2023-06-19T11:29:30;8.07;;;7.40;;
13683;SDS011;6914;53.552;9.908;2023-06-19T11:32:04;6.80;;;6.00;;
13683;SDS011;6914;53.552;9.908;2023-06-19T11:34:32;7.40;;;7.00;;
13683;SDS011;6914;53.552;9.908;2023-06-19T11:37:01;7.50;;;6.20;;
13683;SDS011;6914;53.552;9.908;2023-06-19T11:39:30;6.70;;;6.20;;
13683;SDS011;6914;53.552;9.908;2023-06-19T11:41:59;13.63;;;6.53;;
13683;SDS011;6914;53.552;9.908;2023-06-19T11:44:26;10.83;;;7.00;;
13683;SDS011;6914;53.552;9.908;2023-06-19T11:46:56;7.20;;;6.80;;
13683;SDS011;6914;53.552;9.908;2023-06-19T11:49:24;8.10;;;7.50;;
13683;SDS011;6914;53.552;9.908;2023-06-19T11:51:51;8.80;;;7.00;;
13683;SDS011;6914;53.552;9.908;2023-06-19T11:54:19;7.77;;;7.27;;
13683;SDS011;6914;53.552;9.908;2023-06-19T11:56:46;8.57;;;7.87;;
13683;SDS011;6914;53.552;9.908;2023-06-19T11:59:15;8.80;;;7.90;;
13683;SDS011;6914;53.552;9.908;2023-06-19T12:01:42;6.77;;;6.17;;
13683;SDS011;6914;53.552;9.908;2023-06-19T12:04:09;6.43;;;6.13;;
13683;SDS011;6914;53.552;9.908;2023-06-19T12:06:37;7.00;;;6.40;;
13683;SDS011;6914;53.552;9.908;2023-06-19T12:09:04;7.63;;;7.10;;
13683;SDS011;6914;53.552;9.908;2023-06-19T12:11:31;7.97;;;7.47;;
13683;SDS011;6914;53.552;9.908;2023-06-19T12:13:59;7.27;;;6.73;;
13683;SDS011;6914;53.552;9.908;2023-06-19T12:16:28;7.10;;;6.70;;
13683;SDS011;6914;53.552;9.908;2023-06-19T12:18:55;7.83;;;7.10;;
13683;SDS011;6914;53.552;9.908;2023-06-19T12:21:23;10.10;;;7.57;;
13683;SDS011;6914;53.552;9.908;2023-06-19T12:23:50;7.60;;;7.10;;
13683;SDS011;6914;53.552;9.908;2023-06-19T12:26:17;7.37;;;6.93;;
13683;SDS011;6914;53.552;9.908;2023-06-19T12:28:44;11.80;;;7.53;;
13683;SDS011;6914;53.552;9.908;2023-06-19T12:31:12;9.47;;;7.60;;
13683;SDS011;6914;53.552;9.908;2023-06-19T12:33:40;7.57;;;7.17;;
13683;SDS011;6914;53.552;9.908;2023-06-19T12:36:10;8.07;;;7.47;;
13683;SDS011;6914;53.552;9.908;2023-06-19T12:38:38;9.43;;;7.73;;
13683;SDS011;6914;53.552;9.908;2023-06-19T12:41:06;8.07;;;7.23;;
13683;SDS011;6914;53.552;9.908;2023-06-19T12:43:33;7.03;;;6.37;;
13683;SDS011;6914;53.552;9.908;2023-06-19T12:46:00;10.20;;;6.57;;
13683;SDS011;6914;53.552;9.908;2023-06-19T12:48:27;7.17;;;6.47;;
13683;SDS011;6914;53.552;9.908;2023-06-19T12:50:56;7.27;;;6.77;;
13683;SDS011;6914;53.552;9.908;2023-06-19T12:53:23;7.50;;;6.80;;
13683;SDS011;6914;53.552;9.908;2023-06-19T12:55:54;9.97;;;7.33;;
13683;SDS011;6914;53.552;9.908;2023-06-19T12:58:21;9.20;;;6.40;;
13683;SDS011;6914;53.552;9.908;2023-06-19T13:00:48;7.90;;;7.20;;
13683;SDS011;6914;53.552;9.908;2023-06-19T13:03:15;6.47;;;6.07;;
13683;SDS011;6914;53.552;9.908;2023-06-19T13:05:43;6.40;;;5.80;;
13683;SDS011;6914;53.552;9.908;2023-06-19T13:08:12;6.63;;;5.90;;
13683;SDS011;6914;53.552;9.908;2023-06-19T13:10:39;5.93;;;5.63;;
13683;SDS011;6914;53.552;9.908;2023-06-19T13:13:06;6.00;;;5.60;;
13683;SDS011;6914;53.552;9.908;2023-06-19T13:15:35;6.70;;;5.33;;
13683;SDS011;6914;53.552;9.908;2023-06-19T13:18:03;6.67;;;6.00;;
13683;SDS011;6914;53.552;9.908;2023-06-19T13:20:30;7.90;;;5.87;;
13683;SDS011;6914;53.552;9.908;2023-06-19T13:22:57;6.10;;;5.77;;
13683;SDS011;6914;53.552;9.908;2023-06-19T13:25:26;7.10;;;6.40;;
13683;SDS011;6914;53.552;9.908;2023-06-19T13:27:53;8.20;;;6.53;;
13683;SDS011;6914;53.552;9.908;2023-06-19T13:30:20;7.80;;;7.27;;
13683;SDS011;6914;53.552;9.908;2023-06-19T13:32:47;6.77;;;6.23;;
13683;SDS011;6914;53.552;9.908;2023-06-19T13:35:15;7.83;;;5.73;;
13683;SDS011;6914;53.552;9.908;2023-06-19T13:37:42;9.50;;;6.70;;
13683;SDS011;6914;53.552;9.908;2023-06-19T13:40:09;7.50;;;6.07;;
13683;SDS011;6914;53.552;9.908;2023-06-19T13:42:39;7.53;;;6.93;;
13683;SDS011;6914;53.552;9.908;2023-06-19T13:45:06;6.70;;;6.10;;
13683;SDS011;6914;53.552;9.908;2023-06-19T13:47:35;6.00;;;5.50;;
13683;SDS011;6914;53.552;9.908;2023-06-19T13:50:06;6.23;;;5.93;;
13683;SDS011;6914;53.552;9.908;2023-06-19T13:52:34;11.00;;;5.70;;
13683;SDS011;6914;53.552;9.908;2023-06-19T13:55:01;5.77;;;4.50;;
13683;SDS011;6914;53.552;9.908;2023-06-19T13:57:29;6.50;;;5.60;;
13683;SDS011;6914;53.552;9.908;2023-06-19T13:59:58;22.03;;;6.67;;
13683;SDS011;6914;53.552;9.908;2023-06-19T14:02:25;5.53;;;5.00;;
13683;SDS011;6914;53.552;9.908;2023-06-19T14:04:52;5.37;;;5.07;;
13683;SDS011;6914;53.552;9.908;2023-06-19T14:07:19;5.70;;;5.13;;
13683;SDS011;6914;53.552;9.908;2023-06-19T14:09:48;8.33;;;5.17;;
13683;SDS011;6914;53.552;9.908;2023-06-19T14:12:18;7.80;;;4.63;;
13683;SDS011;6914;53.552;9.908;2023-06-19T14:14:46;13.83;;;6.17;;
13683;SDS011;6914;53.552;9.908;2023-06-19T14:17:15;6.13;;;5.73;;
13683;SDS011;6914;53.552;9.908;2023-06-19T14:19:42;5.97;;;5.47;;
13683;SDS011;6914;53.552;9.908;2023-06-19T14:22:09;5.13;;;4.80;;
13683;SDS011;6914;53.552;9.908;2023-06-19T14:24:38;9.27;;;5.10;;
13683;SDS011;6914;53.552;9.908;2023-06-19T14:27:06;7.07;;;4.87;;
13683;SDS011;6914;53.552;9.908;2023-06-19T14:29:33;5.77;;;5.47;;
13683;SDS011;6914;53.552;9.908;2023-06-19T14:32:00;5.17;;;4.87;;
13683;SDS011;6914;53.552;9.908;2023-06-19T14:34:29;6.00;;;5.50;;
13683;SDS011;6914;53.552;9.908;2023-06-19T14:36:56;7.63;;;5.90;;
13683;SDS011;6914;53.552;9.908;2023-06-19T14:39:24;5.10;;;4.77;;
13683;SDS011;6914;53.552;9.908;2023-06-19T14:41:51;6.00;;;5.60;;
13683;SDS011;6914;53.552;9.908;2023-06-19T14:44:18;5.60;;;5.30;;
13683;SDS011;6914;53.552;9.908;2023-06-19T14:46:45;5.37;;;5.07;;
13683;SDS011;6914;53.552;9.908;2023-06-19T14:49:13;6.30;;;5.80;;